sensor_id;sensor_type;location;lat;lon;timestamp;temperature;humidity
13976;DHT22;7062;49.792;9.946;2023-04-15T00:00:45;8.80;99.90
13976;DHT22;7062;49.792;9.946;2023-04-15T00:03:11;8.80;99.90
13976;DHT22;7062;49.792;9.946;2023-04-15T00:05:36;8.70;99.90
13976;DHT22;7062;49.792;9.946;2023-04-15T00:08:02;8.70;99.90
13976;DHT22;7062;49.792;9.946;2023-04-15T00:10:28;8.80;99.90
13976;DHT22;7062;49.792;9.946;2023-04-15T00:12:54;8.80;99.90
13976;DHT22;7062;49.792;9.946;2023-04-15T00:15:19;8.70;99.90
13976;DHT22;7062;49.792;9.946;2023-04-15T00:17:45;8.70;99.90
13976;DHT22;7062;49.792;9.946;2023-04-15T00:20:11;8.80;99.90
13976;DHT22;7062;49.792;9.946;2023-04-15T00:22:37;8.80;99.90
13976;DHT22;7062;49.792;9.946;2023-04-15T00:25:03;8.80;99.90
13976;DHT22;7062;49.792;9.946;2023-04-15T00:27:28;8.80;99.90
13976;DHT22;7062;49.792;9.946;2023-04-15T00:29:54;8.80;99.90
13976;DHT22;7062;49.792;9.946;2023-04-15T00:32:20;8.70;99.90
13976;DHT22;7062;49.792;9.946;2023-04-15T00:34:46;8.80;99.90
13976;DHT22;7062;49.792;9.946;2023-04-15T00:37:12;8.80;99.90
13976;DHT22;7062;49.792;9.946;2023-04-15T00:39:37;8.80;99.90
13976;DHT22;7062;49.792;9.946;2023-04-15T00:42:04;8.80;99.90
13976;DHT22;7062;49.792;9.946;2023-04-15T00:44:30;8.80;99.90
13976;DHT22;7062;49.792;9.946;2023-04-15T00:46:56;8.80;99.90
13976;DHT22;7062;49.792;9.946;2023-04-15T00:49:22;8.80;99.90
13976;DHT22;7062;49.792;9.946;2023-04-15T00:51:48;8.80;99.90
13976;DHT22;7062;49.792;9.946;2023-04-15T00:54:14;8.80;99.90
13976;DHT22;7062;49.792;9.946;2023-04-15T00:56:41;8.80;99.90
13976;DHT22;7062;49.792;9.946;2023-04-15T00:59:07;8.70;99.90
13976;DHT22;7062;49.792;9.946;2023-04-15T01:01:34;8.80;99.90
13976;DHT22;7062;49.792;9.946;2023-04-15T01:04:01;8.80;99.90
13976;DHT22;7062;49.792;9.946;2023-04-15T01:06:26;8.90;99.90
13976;DHT22;7062;49.792;9.946;2023-04-15T01:08:53;8.80;99.90
13976;DHT22;7062;49.792;9.946;2023-04-15T01:11:19;8.80;99.90
13976;DHT22;7062;49.792;9.946;2023-04-15T01:13:46;8.60;99.90
13976;DHT22;7062;49.792;9.946;2023-04-15T01:16:12;8.60;99.90
13976;DHT22;7062;49.792;9.946;2023-04-15T01:18:38;8.60;99.90
13976;DHT22;7062;49.792;9.946;2023-04-15T01:21:05;8.70;99.90
13976;DHT22;7062;49.792;9.946;2023-04-15T01:23:32;8.70;99.90
13976;DHT22;7062;49.792;9.946;2023-04-15T01:26:02;8.70;99.90
13976;DHT22;7062;49.792;9.946;2023-04-15T01:28:28;8.60;99.90
13976;DHT22;7062;49.792;9.946;2023-04-15T01:31:11;8.50;99.90
13976;DHT22;7062;49.792;9.946;2023-04-15T01:33:41;8.50;99.90
13976;DHT22;7062;49.792;9.946;2023-04-15T01:36:08;8.50;99.90
13976;DHT22;7062;49.792;9.946;2023-04-15T01:38:35;8.50;99.90
13976;DHT22;7062;49.792;9.946;2023-04-15T01:41:01;8.40;99.90
13976;DHT22;7062;49.792;9.946;2023-04-15T01:43:29;8.30;99.90
13976;DHT22;7062;49.792;9.946;2023-04-15T01:45:54;8.50;99.90
13976;DHT22;7062;49.792;9.946;2023-04-15T01:48:21;8.30;99.90
13976;DHT22;7062;49.792;9.946;2023-04-15T01:50:47;8.30;99.90
13976;DHT22;7062;49.792;9.946;2023-04-15T01:53:13;8.40;99.90
13976;DHT22;7062;49.792;9.946;2023-04-15T01:55:39;8.40;99.90
13976;DHT22;7062;49.792;9.946;2023-04-15T01:58:05;8.50;99.90
13976;DHT22;7062;49.792;9.946;2023-04-15T02:00:31;8.40;99.90
13976;DHT22;7062;49.792;9.946;2023-04-15T02:02:57;8.50;99.90
13976;DHT22;7062;49.792;9.946;2023-04-15T02:05:23;8.40;99.90
13976;DHT22;7062;49.792;9.946;2023-04-15T02:07:49;8.50;99.90
13976;DHT22;7062;49.792;9.946;2023-04-15T02:10:15;8.50;99.90
13976;DHT22;7062;49.792;9.946;2023-04-15T02:12:41;8.50;99.90
13976;DHT22;7062;49.792;9.946;2023-04-15T02:15:08;8.50;99.90
13976;DHT22;7062;49.792;9.946;2023-04-15T02:17:34;8.50;99.90
13976;DHT22;7062;49.792;9.946;2023-04-15T02:20:00;8.40;99.90
13976;DHT22;7062;49.792;9.946;2023-04-15T02:22:26;8.50;99.90
13976;DHT22;7062;49.792;9.946;2023-04-15T02:24:52;8.50;99.90
13976;DHT22;7062;49.792;9.946;2023-04-15T02:27:18;8.50;99.90
13976;DHT22;7062;49.792;9.946;2023-04-15T02:29:44;8.40;99.90
13976;DHT22;7062;49.792;9.946;2023-04-15T02:32:11;8.40;99.90
13976;DHT22;7062;49.792;9.946;2023-04-15T02:34:38;8.20;99.90
13976;DHT22;7062;49.792;9.946;2023-04-15T02:37:06;8.30;99.90
13976;DHT22;7062;49.792;9.946;2023-04-15T02:39:32;8.30;99.90
13976;DHT22;7062;49.792;9.946;2023-04-15T02:41:58;8.20;99.90
13976;DHT22;7062;49.792;9.946;2023-04-15T02:44:25;8.10;99.90
13976;DHT22;7062;49.792;9.946;2023-04-15T02:46:52;8.00;99.90
13976;DHT22;7062;49.792;9.946;2023-04-15T02:49:22;8.00;99.90
13976;DHT22;7062;49.792;9.946;2023-04-15T02:51:47;8.00;99.90
13976;DHT22;7062;49.792;9.946;2023-04-15T02:54:18;8.10;99.90
13976;DHT22;7062;49.792;9.946;2023-04-15T02:56:44;8.10;99.90
13976;DHT22;7062;49.792;9.946;2023-04-15T02:59:10;8.20;99.90
13976;DHT22;7062;49.792;9.946;2023-04-15T03:01:36;8.20;99.90
13976;DHT22;7062;49.792;9.946;2023-04-15T03:04:02;8.20;99.90
13976;DHT22;7062;49.792;9.946;2023-04-15T03:06:28;8.10;99.90
13976;DHT22;7062;49.792;9.946;2023-04-15T03:08:53;8.10;99.90
13976;DHT22;7062;49.792;9.946;2023-04-15T03:11:19;8.10;99.90
13976;DHT22;7062;49.792;9.946;2023-04-15T03:13:45;8.10;99.90
13976;DHT22;7062;49.792;9.946;2023-04-15T03:16:11;8.10;99.90
13976;DHT22;7062;49.792;9.946;2023-04-15T03:18:37;8.00;99.90
13976;DHT22;7062;49.792;9.946;2023-04-15T03:21:03;7.90;99.90
13976;DHT22;7062;49.792;9.946;2023-04-15T03:23:30;7.90;99.90
13976;DHT22;7062;49.792;9.946;2023-04-15T03:25:56;7.80;99.90
13976;DHT22;7062;49.792;9.946;2023-04-15T03:28:22;7.80;99.90
13976;DHT22;7062;49.792;9.946;2023-04-15T03:30:48;7.90;99.90
13976;DHT22;7062;49.792;9.946;2023-04-15T03:33:14;8.00;99.90
13976;DHT22;7062;49.792;9.946;2023-04-15T03:35:39;8.00;99.90
13976;DHT22;7062;49.792;9.946;2023-04-15T03:38:05;7.90;99.90
13976;DHT22;7062;49.792;9.946;2023-04-15T03:40:31;7.30;99.90
13976;DHT22;7062;49.792;9.946;2023-04-15T03:42:57;7.90;99.90
13976;DHT22;7062;49.792;9.946;2023-04-15T03:45:22;8.00;99.90
13976;DHT22;7062;49.792;9.946;2023-04-15T03:47:48;8.00;99.90
13976;DHT22;7062;49.792;9.946;2023-04-15T03:50:14;7.80;99.90
13976;DHT22;7062;49.792;9.946;2023-04-15T03:52:40;7.80;99.90
13976;DHT22;7062;49.792;9.946;2023-04-15T03:55:06;8.00;99.90
13976;DHT22;7062;49.792;9.946;2023-04-15T03:57:33;8.00;99.90
13976;DHT22;7062;49.792;9.946;2023-04-15T04:00:03;8.00;99.90
13976;DHT22;7062;49.792;9.946;2023-04-15T04:02:29;8.00;99.90
13976;DHT22;7062;49.792;9.946;2023-04-15T04:04:54;8.00;99.90
13976;DHT22;7062;49.792;9.946;2023-04-15T04:07:22;8.10;99.90
13976;DHT22;7062;49.792;9.946;2023-04-15T04:09:48;8.20;99.90
13976;DHT22;7062;49.792;9.946;2023-04-15T04:12:13;8.00;99.90
13976;DHT22;7062;49.792;9.946;2023-04-15T04:14:39;8.00;99.90
13976;DHT22;7062;49.792;9.946;2023-04-15T04:17:05;7.90;99.90
13976;DHT22;7062;49.792;9.946;2023-04-15T04:19:31;7.90;99.90
13976;DHT22;7062;49.792;9.946;2023-04-15T04:21:56;7.90;99.90
13976;DHT22;7062;49.792;9.946;2023-04-15T04:24:22;7.70;99.90
13976;DHT22;7062;49.792;9.946;2023-04-15T04:26:47;7.70;99.90
13976;DHT22;7062;49.792;9.946;2023-04-15T04:29:13;7.80;99.90
13976;DHT22;7062;49.792;9.946;2023-04-15T04:31:39;7.80;99.90
13976;DHT22;7062;49.792;9.946;2023-04-15T04:34:04;7.90;99.90
13976;DHT22;7062;49.792;9.946;2023-04-15T04:36:30;7.90;99.90
13976;DHT22;7062;49.792;9.946;2023-04-15T04:38:56;7.90;99.90
13976;DHT22;7062;49.792;9.946;2023-04-15T04:41:21;7.80;99.90
13976;DHT22;7062;49.792;9.946;2023-04-15T04:43:47;7.70;99.90
13976;DHT22;7062;49.792;9.946;2023-04-15T04:46:13;7.70;99.90
13976;DHT22;7062;49.792;9.946;2023-04-15T04:48:38;7.40;99.90
13976;DHT22;7062;49.792;9.946;2023-04-15T04:51:05;7.60;99.90
13976;DHT22;7062;49.792;9.946;2023-04-15T04:53:31;7.40;99.90
13976;DHT22;7062;49.792;9.946;2023-04-15T04:55:56;7.80;99.90
13976;DHT22;7062;49.792;9.946;2023-04-15T04:58:22;7.80;99.90
13976;DHT22;7062;49.792;9.946;2023-04-15T05:00:48;7.80;99.90
13976;DHT22;7062;49.792;9.946;2023-04-15T05:03:13;7.70;99.90
13976;DHT22;7062;49.792;9.946;2023-04-15T05:05:39;7.80;99.90
13976;DHT22;7062;49.792;9.946;2023-04-15T05:08:06;8.70;99.90
13976;DHT22;7062;49.792;9.946;2023-04-15T05:10:31;8.00;99.90
13976;DHT22;7062;49.792;9.946;2023-04-15T05:12:57;8.10;99.90
13976;DHT22;7062;49.792;9.946;2023-04-15T05:15:23;7.90;99.90
13976;DHT22;7062;49.792;9.946;2023-04-15T05:17:48;8.10;99.90
13976;DHT22;7062;49.792;9.946;2023-04-15T05:20:14;8.30;99.90
13976;DHT22;7062;49.792;9.946;2023-04-15T05:22:40;8.40;99.90
13976;DHT22;7062;49.792;9.946;2023-04-15T05:25:06;8.40;99.90
13976;DHT22;7062;49.792;9.946;2023-04-15T05:27:31;8.40;99.90
13976;DHT22;7062;49.792;9.946;2023-04-15T05:29:57;8.40;99.90
13976;DHT22;7062;49.792;9.946;2023-04-15T05:32:23;8.40;99.90
13976;DHT22;7062;49.792;9.946;2023-04-15T05:34:48;8.20;99.90
13976;DHT22;7062;49.792;9.946;2023-04-15T05:37:14;8.30;99.90
13976;DHT22;7062;49.792;9.946;2023-04-15T05:39:40;8.40;99.90
13976;DHT22;7062;49.792;9.946;2023-04-15T05:42:05;8.60;99.90
13976;DHT22;7062;49.792;9.946;2023-04-15T05:44:31;8.60;99.90
13976;DHT22;7062;49.792;9.946;2023-04-15T05:46:57;8.80;99.90
13976;DHT22;7062;49.792;9.946;2023-04-15T05:49:23;9.00;99.90
13976;DHT22;7062;49.792;9.946;2023-04-15T05:51:48;9.00;99.90
13976;DHT22;7062;49.792;9.946;2023-04-15T05:54:14;9.20;99.90
13976;DHT22;7062;49.792;9.946;2023-04-15T05:56:40;9.20;99.90
13976;DHT22;7062;49.792;9.946;2023-04-15T05:59:06;9.20;99.90
13976;DHT22;7062;49.792;9.946;2023-04-15T06:01:32;9.30;99.90
13976;DHT22;7062;49.792;9.946;2023-04-15T06:03:58;9.40;99.90
13976;DHT22;7062;49.792;9.946;2023-04-15T06:06:24;9.30;99.90
13976;DHT22;7062;49.792;9.946;2023-04-15T06:08:51;9.20;99.90
13976;DHT22;7062;49.792;9.946;2023-04-15T06:11:17;9.10;99.90
13976;DHT22;7062;49.792;9.946;2023-04-15T06:13:43;9.30;99.90
13976;DHT22;7062;49.792;9.946;2023-04-15T06:16:08;9.30;99.90
13976;DHT22;7062;49.792;9.946;2023-04-15T06:18:34;9.30;99.90
13976;DHT22;7062;49.792;9.946;2023-04-15T06:20:59;9.50;99.90
13976;DHT22;7062;49.792;9.946;2023-04-15T06:23:25;9.50;99.90
13976;DHT22;7062;49.792;9.946;2023-04-15T06:25:51;9.40;99.90
13976;DHT22;7062;49.792;9.946;2023-04-15T06:28:17;9.20;99.90
13976;DHT22;7062;49.792;9.946;2023-04-15T06:30:42;9.30;99.90
13976;DHT22;7062;49.792;9.946;2023-04-15T06:33:08;9.40;99.90
13976;DHT22;7062;49.792;9.946;2023-04-15T06:35:35;9.30;99.90
13976;DHT22;7062;49.792;9.946;2023-04-15T06:38:00;9.50;99.90
13976;DHT22;7062;49.792;9.946;2023-04-15T06:40:26;9.60;99.90
13976;DHT22;7062;49.792;9.946;2023-04-15T06:42:52;9.50;99.90
13976;DHT22;7062;49.792;9.946;2023-04-15T06:45:18;9.60;99.90
13976;DHT22;7062;49.792;9.946;2023-04-15T06:47:43;9.90;99.90
13976;DHT22;7062;49.792;9.946;2023-04-15T06:50:09;10.10;99.90
13976;DHT22;7062;49.792;9.946;2023-04-15T06:52:35;10.60;99.90
13976;DHT22;7062;49.792;9.946;2023-04-15T06:55:01;10.90;99.90
13976;DHT22;7062;49.792;9.946;2023-04-15T06:57:27;11.10;99.90
13976;DHT22;7062;49.792;9.946;2023-04-15T06:59:53;11.00;99.90
13976;DHT22;7062;49.792;9.946;2023-04-15T07:02:19;10.90;99.90
13976;DHT22;7062;49.792;9.946;2023-04-15T07:04:45;11.00;99.90
13976;DHT22;7062;49.792;9.946;2023-04-15T07:07:10;10.90;99.90
13976;DHT22;7062;49.792;9.946;2023-04-15T07:09:36;10.70;99.90
13976;DHT22;7062;49.792;9.946;2023-04-15T07:12:02;10.80;99.90
13976;DHT22;7062;49.792;9.946;2023-04-15T07:14:28;10.80;99.90
13976;DHT22;7062;49.792;9.946;2023-04-15T07:16:54;10.80;99.90
13976;DHT22;7062;49.792;9.946;2023-04-15T07:19:20;11.10;99.90
13976;DHT22;7062;49.792;9.946;2023-04-15T07:21:46;11.30;99.90
13976;DHT22;7062;49.792;9.946;2023-04-15T07:24:12;11.00;99.90
13976;DHT22;7062;49.792;9.946;2023-04-15T07:26:41;10.90;99.90
13976;DHT22;7062;49.792;9.946;2023-04-15T07:29:07;10.80;99.90
13976;DHT22;7062;49.792;9.946;2023-04-15T07:31:32;10.90;99.90
13976;DHT22;7062;49.792;9.946;2023-04-15T07:33:58;11.00;99.90
13976;DHT22;7062;49.792;9.946;2023-04-15T07:36:24;11.10;99.90
13976;DHT22;7062;49.792;9.946;2023-04-15T07:38:49;11.30;99.90
13976;DHT22;7062;49.792;9.946;2023-04-15T07:41:15;11.30;99.90
13976;DHT22;7062;49.792;9.946;2023-04-15T07:43:41;11.30;99.90
13976;DHT22;7062;49.792;9.946;2023-04-15T07:46:07;11.60;99.90
13976;DHT22;7062;49.792;9.946;2023-04-15T07:48:33;11.60;99.90
13976;DHT22;7062;49.792;9.946;2023-04-15T07:50:58;11.80;99.90
13976;DHT22;7062;49.792;9.946;2023-04-15T07:53:25;11.90;99.90
13976;DHT22;7062;49.792;9.946;2023-04-15T07:55:50;11.90;99.90
13976;DHT22;7062;49.792;9.946;2023-04-15T07:58:16;12.10;99.90
13976;DHT22;7062;49.792;9.946;2023-04-15T08:00:42;12.10;99.90
13976;DHT22;7062;49.792;9.946;2023-04-15T08:03:08;12.40;99.90
13976;DHT22;7062;49.792;9.946;2023-04-15T08:05:33;12.20;99.90
13976;DHT22;7062;49.792;9.946;2023-04-15T08:07:59;12.40;99.90
13976;DHT22;7062;49.792;9.946;2023-04-15T08:10:25;12.70;99.90
13976;DHT22;7062;49.792;9.946;2023-04-15T08:12:51;13.00;99.90
13976;DHT22;7062;49.792;9.946;2023-04-15T08:15:19;13.10;99.90
13976;DHT22;7062;49.792;9.946;2023-04-15T08:17:44;13.40;99.90
13976;DHT22;7062;49.792;9.946;2023-04-15T08:20:11;13.30;99.90
13976;DHT22;7062;49.792;9.946;2023-04-15T08:22:37;13.30;99.90
13976;DHT22;7062;49.792;9.946;2023-04-15T08:25:03;12.80;99.90
13976;DHT22;7062;49.792;9.946;2023-04-15T08:27:29;12.50;99.90
13976;DHT22;7062;49.792;9.946;2023-04-15T08:29:55;12.40;99.90
13976;DHT22;7062;49.792;9.946;2023-04-15T08:32:21;12.50;99.90
13976;DHT22;7062;49.792;9.946;2023-04-15T08:34:47;12.70;99.90
13976;DHT22;7062;49.792;9.946;2023-04-15T08:37:13;13.20;99.90
13976;DHT22;7062;49.792;9.946;2023-04-15T08:39:38;13.30;99.90
13976;DHT22;7062;49.792;9.946;2023-04-15T08:42:09;13.40;99.90
13976;DHT22;7062;49.792;9.946;2023-04-15T08:44:36;13.80;99.90
13976;DHT22;7062;49.792;9.946;2023-04-15T08:47:03;13.80;99.90
13976;DHT22;7062;49.792;9.946;2023-04-15T08:49:31;13.80;99.90
13976;DHT22;7062;49.792;9.946;2023-04-15T08:51:58;13.90;99.90
13976;DHT22;7062;49.792;9.946;2023-04-15T08:54:25;13.90;99.90
13976;DHT22;7062;49.792;9.946;2023-04-15T08:56:51;14.20;99.90
13976;DHT22;7062;49.792;9.946;2023-04-15T08:59:19;14.60;99.90
13976;DHT22;7062;49.792;9.946;2023-04-15T09:01:46;14.80;99.90
13976;DHT22;7062;49.792;9.946;2023-04-15T09:04:13;14.60;99.90
13976;DHT22;7062;49.792;9.946;2023-04-15T09:06:39;15.00;99.90
13976;DHT22;7062;49.792;9.946;2023-04-15T09:09:05;15.40;99.90
13976;DHT22;7062;49.792;9.946;2023-04-15T09:11:31;15.20;99.90
13976;DHT22;7062;49.792;9.946;2023-04-15T09:13:57;15.20;99.90
13976;DHT22;7062;49.792;9.946;2023-04-15T09:16:22;15.10;99.90
13976;DHT22;7062;49.792;9.946;2023-04-15T09:18:49;15.00;99.90
13976;DHT22;7062;49.792;9.946;2023-04-15T09:21:16;14.70;99.90
13976;DHT22;7062;49.792;9.946;2023-04-15T09:23:56;14.10;99.90
13976;DHT22;7062;49.792;9.946;2023-04-15T09:26:37;14.20;99.90
13976;DHT22;7062;49.792;9.946;2023-04-15T09:29:09;13.90;99.90
13976;DHT22;7062;49.792;9.946;2023-04-15T09:31:37;13.50;99.90
13976;DHT22;7062;49.792;9.946;2023-04-15T09:34:03;13.30;99.90
13976;DHT22;7062;49.792;9.946;2023-04-15T09:36:29;13.50;99.90
13976;DHT22;7062;49.792;9.946;2023-04-15T09:39:01;13.20;99.90
13976;DHT22;7062;49.792;9.946;2023-04-15T09:41:27;12.90;99.90
13976;DHT22;7062;49.792;9.946;2023-04-15T09:43:53;12.80;99.90
13976;DHT22;7062;49.792;9.946;2023-04-15T09:46:18;12.50;99.90
13976;DHT22;7062;49.792;9.946;2023-04-15T09:48:44;12.20;99.90
13976;DHT22;7062;49.792;9.946;2023-04-15T09:51:10;12.10;99.90
13976;DHT22;7062;49.792;9.946;2023-04-15T09:53:36;12.20;99.90
13976;DHT22;7062;49.792;9.946;2023-04-15T09:56:03;12.50;99.90
13976;DHT22;7062;49.792;9.946;2023-04-15T09:58:30;12.80;99.90
13976;DHT22;7062;49.792;9.946;2023-04-15T10:00:57;12.90;99.90
13976;DHT22;7062;49.792;9.946;2023-04-15T10:03:26;12.90;99.90
13976;DHT22;7062;49.792;9.946;2023-04-15T10:05:53;12.60;99.90
13976;DHT22;7062;49.792;9.946;2023-04-15T10:08:22;13.20;99.90
13976;DHT22;7062;49.792;9.946;2023-04-15T10:10:49;13.10;99.90
13976;DHT22;7062;49.792;9.946;2023-04-15T10:13:17;12.70;99.90
13976;DHT22;7062;49.792;9.946;2023-04-15T10:15:45;12.70;99.90
13976;DHT22;7062;49.792;9.946;2023-04-15T10:18:15;12.70;99.90
13976;DHT22;7062;49.792;9.946;2023-04-15T10:20:42;12.90;99.90
13976;DHT22;7062;49.792;9.946;2023-04-15T10:23:08;12.80;99.90
13976;DHT22;7062;49.792;9.946;2023-04-15T10:25:35;13.00;99.90
13976;DHT22;7062;49.792;9.946;2023-04-15T10:28:02;12.90;99.90
13976;DHT22;7062;49.792;9.946;2023-04-15T10:30:28;13.00;99.90
13976;DHT22;7062;49.792;9.946;2023-04-15T10:32:54;12.70;99.90
13976;DHT22;7062;49.792;9.946;2023-04-15T10:35:21;12.80;99.90
13976;DHT22;7062;49.792;9.946;2023-04-15T10:37:47;12.70;99.90
13976;DHT22;7062;49.792;9.946;2023-04-15T10:40:24;12.50;99.90
13976;DHT22;7062;49.792;9.946;2023-04-15T10:42:57;12.40;99.90
13976;DHT22;7062;49.792;9.946;2023-04-15T10:45:34;12.50;99.90
13976;DHT22;7062;49.792;9.946;2023-04-15T10:48:02;12.60;99.90
13976;DHT22;7062;49.792;9.946;2023-04-15T10:50:30;12.50;99.90
13976;DHT22;7062;49.792;9.946;2023-04-15T10:52:56;12.70;99.90
13976;DHT22;7062;49.792;9.946;2023-04-15T10:55:24;12.50;99.90
13976;DHT22;7062;49.792;9.946;2023-04-15T10:57:57;12.40;99.90
13976;DHT22;7062;49.792;9.946;2023-04-15T11:00:29;12.50;99.90
13976;DHT22;7062;49.792;9.946;2023-04-15T11:02:56;12.40;99.90
13976;DHT22;7062;49.792;9.946;2023-04-15T11:05:48;12.30;99.90
13976;DHT22;7062;49.792;9.946;2023-04-15T11:08:14;12.20;99.90
13976;DHT22;7062;49.792;9.946;2023-04-15T11:20:35;11.70;99.90
13976;DHT22;7062;49.792;9.946;2023-04-15T11:23:01;11.50;99.90
13976;DHT22;7062;49.792;9.946;2023-04-15T11:25:29;11.40;99.90
13976;DHT22;7062;49.792;9.946;2023-04-15T11:27:55;11.30;99.90
13976;DHT22;7062;49.792;9.946;2023-04-15T11:30:23;11.50;99.90
13976;DHT22;7062;49.792;9.946;2023-04-15T11:32:49;11.60;99.90
13976;DHT22;7062;49.792;9.946;2023-04-15T11:35:16;11.40;99.90
13976;DHT22;7062;49.792;9.946;2023-04-15T11:37:45;11.50;99.90
13976;DHT22;7062;49.792;9.946;2023-04-15T11:40:11;11.30;99.90
13976;DHT22;7062;49.792;9.946;2023-04-15T11:42:38;11.30;99.90
13976;DHT22;7062;49.792;9.946;2023-04-15T11:47:34;11.30;99.90
13976;DHT22;7062;49.792;9.946;2023-04-15T11:50:33;11.50;99.90
13976;DHT22;7062;49.792;9.946;2023-04-15T11:53:02;11.60;99.90
13976;DHT22;7062;49.792;9.946;2023-04-15T11:55:29;11.50;99.90
13976;DHT22;7062;49.792;9.946;2023-04-15T11:58:25;11.50;99.90
13976;DHT22;7062;49.792;9.946;2023-04-15T12:00:52;11.70;99.90
13976;DHT22;7062;49.792;9.946;2023-04-15T12:03:25;11.80;99.90
13976;DHT22;7062;49.792;9.946;2023-04-15T12:06:44;12.00;99.90
13976;DHT22;7062;49.792;9.946;2023-04-15T12:09:07;11.90;99.90
13976;DHT22;7062;49.792;9.946;2023-04-15T12:11:49;11.90;99.90
13976;DHT22;7062;49.792;9.946;2023-04-15T12:14:26;11.90;99.90
13976;DHT22;7062;49.792;9.946;2023-04-15T12:17:03;12.00;99.90
13976;DHT22;7062;49.792;9.946;2023-04-15T12:19:39;12.20;99.90
13976;DHT22;7062;49.792;9.946;2023-04-15T12:22:15;12.00;99.90
13976;DHT22;7062;49.792;9.946;2023-04-15T12:24:42;11.80;99.90
13976;DHT22;7062;49.792;9.946;2023-04-15T12:27:11;11.80;99.90
13976;DHT22;7062;49.792;9.946;2023-04-15T12:29:39;11.70;99.90
13976;DHT22;7062;49.792;9.946;2023-04-15T12:32:06;11.40;99.90
13976;DHT22;7062;49.792;9.946;2023-04-15T12:37:02;11.00;99.90
13976;DHT22;7062;49.792;9.946;2023-04-15T12:39:30;11.10;99.90
13976;DHT22;7062;49.792;9.946;2023-04-15T12:41:58;11.20;99.90
13976;DHT22;7062;49.792;9.946;2023-04-15T12:44:24;11.00;99.90
13976;DHT22;7062;49.792;9.946;2023-04-15T12:46:50;10.90;99.90
13976;DHT22;7062;49.792;9.946;2023-04-15T12:49:17;11.10;99.90
13976;DHT22;7062;49.792;9.946;2023-04-15T12:51:51;11.00;99.90
13976;DHT22;7062;49.792;9.946;2023-04-15T12:54:17;10.90;99.90
13976;DHT22;7062;49.792;9.946;2023-04-15T12:56:44;11.00;99.90
13976;DHT22;7062;49.792;9.946;2023-04-15T12:59:10;10.90;99.90
13976;DHT22;7062;49.792;9.946;2023-04-15T13:01:37;10.80;99.90
13976;DHT22;7062;49.792;9.946;2023-04-15T13:04:03;10.90;99.90
13976;DHT22;7062;49.792;9.946;2023-04-15T13:06:29;10.90;99.90
13976;DHT22;7062;49.792;9.946;2023-04-15T13:08:57;10.90;99.90
13976;DHT22;7062;49.792;9.946;2023-04-15T13:11:23;11.00;99.90
13976;DHT22;7062;49.792;9.946;2023-04-15T13:13:49;11.00;99.90
13976;DHT22;7062;49.792;9.946;2023-04-15T13:16:17;11.00;99.90
13976;DHT22;7062;49.792;9.946;2023-04-15T13:18:43;10.90;99.90
13976;DHT22;7062;49.792;9.946;2023-04-15T13:21:11;10.90;99.90
13976;DHT22;7062;49.792;9.946;2023-04-15T13:23:36;10.90;99.90
13976;DHT22;7062;49.792;9.946;2023-04-15T13:26:02;11.30;99.90
13976;DHT22;7062;49.792;9.946;2023-04-15T13:28:28;12.00;99.90
13976;DHT22;7062;49.792;9.946;2023-04-15T13:30:54;12.70;99.90
13976;DHT22;7062;49.792;9.946;2023-04-15T13:33:19;13.00;99.90
13976;DHT22;7062;49.792;9.946;2023-04-15T13:35:46;12.70;99.90
13976;DHT22;7062;49.792;9.946;2023-04-15T13:38:11;12.70;99.90
13976;DHT22;7062;49.792;9.946;2023-04-15T13:40:37;13.10;99.90
13976;DHT22;7062;49.792;9.946;2023-04-15T13:43:02;13.20;99.90
13976;DHT22;7062;49.792;9.946;2023-04-15T13:45:29;12.70;99.90
13976;DHT22;7062;49.792;9.946;2023-04-15T13:47:55;12.10;99.90
13976;DHT22;7062;49.792;9.946;2023-04-15T13:50:22;11.70;99.90
13976;DHT22;7062;49.792;9.946;2023-04-15T13:52:47;11.70;99.90
13976;DHT22;7062;49.792;9.946;2023-04-15T13:55:13;11.60;99.90
13976;DHT22;7062;49.792;9.946;2023-04-15T13:57:39;11.60;99.90
13976;DHT22;7062;49.792;9.946;2023-04-15T14:00:05;11.50;99.90
13976;DHT22;7062;49.792;9.946;2023-04-15T14:02:31;11.30;99.90
13976;DHT22;7062;49.792;9.946;2023-04-15T14:04:56;11.20;99.90
13976;DHT22;7062;49.792;9.946;2023-04-15T14:07:22;11.10;99.90
13976;DHT22;7062;49.792;9.946;2023-04-15T14:09:48;11.10;99.90
13976;DHT22;7062;49.792;9.946;2023-04-15T14:12:13;11.10;99.90
13976;DHT22;7062;49.792;9.946;2023-04-15T14:14:39;11.10;99.90
13976;DHT22;7062;49.792;9.946;2023-04-15T14:17:05;11.20;99.90
13976;DHT22;7062;49.792;9.946;2023-04-15T14:19:31;11.30;99.90
13976;DHT22;7062;49.792;9.946;2023-04-15T14:21:57;11.30;99.90
13976;DHT22;7062;49.792;9.946;2023-04-15T14:24:23;11.20;99.90
13976;DHT22;7062;49.792;9.946;2023-04-15T14:26:49;11.00;99.90
13976;DHT22;7062;49.792;9.946;2023-04-15T14:29:15;10.80;99.90
13976;DHT22;7062;49.792;9.946;2023-04-15T14:31:41;10.70;99.90
13976;DHT22;7062;49.792;9.946;2023-04-15T14:34:09;10.70;99.90
13976;DHT22;7062;49.792;9.946;2023-04-15T14:36:34;10.60;99.90
13976;DHT22;7062;49.792;9.946;2023-04-15T14:39:00;10.70;99.90
13976;DHT22;7062;49.792;9.946;2023-04-15T14:41:26;10.70;99.90
13976;DHT22;7062;49.792;9.946;2023-04-15T14:43:51;10.90;99.90
13976;DHT22;7062;49.792;9.946;2023-04-15T14:46:17;11.10;99.90
13976;DHT22;7062;49.792;9.946;2023-04-15T14:48:43;11.00;99.90
13976;DHT22;7062;49.792;9.946;2023-04-15T14:51:09;11.10;99.90
13976;DHT22;7062;49.792;9.946;2023-04-15T14:53:34;11.20;99.90
13976;DHT22;7062;49.792;9.946;2023-04-15T14:56:00;11.30;99.90
13976;DHT22;7062;49.792;9.946;2023-04-15T14:58:25;11.20;99.90
13976;DHT22;7062;49.792;9.946;2023-04-15T15:00:51;11.20;99.90
13976;DHT22;7062;49.792;9.946;2023-04-15T15:03:17;11.10;99.90
13976;DHT22;7062;49.792;9.946;2023-04-15T15:05:44;11.20;99.90
13976;DHT22;7062;49.792;9.946;2023-04-15T15:08:10;11.00;99.90
13976;DHT22;7062;49.792;9.946;2023-04-15T15:10:37;10.80;99.90
13976;DHT22;7062;49.792;9.946;2023-04-15T15:13:04;10.70;99.90
13976;DHT22;7062;49.792;9.946;2023-04-15T15:15:30;10.80;99.90
13976;DHT22;7062;49.792;9.946;2023-04-15T15:17:55;10.90;99.90
13976;DHT22;7062;49.792;9.946;2023-04-15T15:20:22;10.90;99.90
13976;DHT22;7062;49.792;9.946;2023-04-15T15:22:47;10.90;99.90
13976;DHT22;7062;49.792;9.946;2023-04-15T15:25:13;10.90;99.90
13976;DHT22;7062;49.792;9.946;2023-04-15T15:27:39;10.90;99.90
13976;DHT22;7062;49.792;9.946;2023-04-15T15:30:05;10.90;99.90
13976;DHT22;7062;49.792;9.946;2023-04-15T15:32:33;10.80;99.90
13976;DHT22;7062;49.792;9.946;2023-04-15T15:34:59;10.80;99.90
13976;DHT22;7062;49.792;9.946;2023-04-15T15:37:25;10.70;99.90
13976;DHT22;7062;49.792;9.946;2023-04-15T15:39:51;10.70;99.90
13976;DHT22;7062;49.792;9.946;2023-04-15T15:42:21;10.80;99.90
13976;DHT22;7062;49.792;9.946;2023-04-15T15:44:47;10.80;99.90
13976;DHT22;7062;49.792;9.946;2023-04-15T15:47:17;10.70;99.90
13976;DHT22;7062;49.792;9.946;2023-04-15T15:49:43;10.70;99.90
13976;DHT22;7062;49.792;9.946;2023-04-15T15:52:09;10.70;99.90
13976;DHT22;7062;49.792;9.946;2023-04-15T15:54:35;10.50;99.90
13976;DHT22;7062;49.792;9.946;2023-04-15T15:57:02;10.70;99.90
13976;DHT22;7062;49.792;9.946;2023-04-15T15:59:28;10.70;99.90
13976;DHT22;7062;49.792;9.946;2023-04-15T16:01:54;10.60;99.90
13976;DHT22;7062;49.792;9.946;2023-04-15T16:04:19;10.70;99.90